createdAt,value
2018-11-25T00:02:20.107Z,11.13
2018-11-25T00:04:48.942Z,11.63
2018-11-25T00:07:17.799Z,10.80
2018-11-25T00:09:46.637Z,11.63
2018-11-25T00:12:15.471Z,10.87
2018-11-25T00:14:44.317Z,11.30
2018-11-25T00:17:13.144Z,10.37
2018-11-25T00:19:42.568Z,10.37
2018-11-25T00:22:11.420Z,10.33
2018-11-25T00:24:40.256Z,10.23
2018-11-25T00:27:09.114Z,10.80
2018-11-25T00:29:37.964Z,10.27
2018-11-25T00:32:07.028Z,10.13
2018-11-25T00:34:36.223Z,10.30
2018-11-25T00:37:05.068Z,9.25
2018-11-25T00:39:33.916Z,8.50
2018-11-25T00:42:02.743Z,8.87
2018-11-25T00:44:31.581Z,8.90
2018-11-25T00:47:01.152Z,8.70
2018-11-25T00:49:29.975Z,8.87
2018-11-25T00:51:59.573Z,8.43
2018-11-25T00:54:28.421Z,8.60
2018-11-25T00:56:57.261Z,8.77
2018-11-25T00:59:26.094Z,9.38
2018-11-25T01:01:54.924Z,8.65
2018-11-25T01:04:23.762Z,7.90
2018-11-25T01:06:52.590Z,8.77
2018-11-25T01:09:21.428Z,8.23
2018-11-25T01:11:50.260Z,8.13
2018-11-25T01:14:19.133Z,9.03
2018-11-25T01:16:47.920Z,7.13
2018-11-25T01:19:16.748Z,7.27
2018-11-25T01:21:46.464Z,7.07
2018-11-25T01:24:15.134Z,7.20
2018-11-25T01:26:43.960Z,7.53
2018-11-25T01:29:12.786Z,6.13
2018-11-25T01:31:41.616Z,7.03
2018-11-25T01:34:11.189Z,6.60
2018-11-25T01:36:40.611Z,6.67
2018-11-25T01:39:09.448Z,7.10
2018-11-25T01:41:38.290Z,6.97
2018-11-25T01:44:07.878Z,7.23
2018-11-25T01:46:36.719Z,7.10
2018-11-25T01:49:05.541Z,6.80
2018-11-25T01:51:34.366Z,7.13
2018-11-25T01:54:03.928Z,6.93
2018-11-25T01:56:32.747Z,7.60
2018-11-25T01:59:01.593Z,6.67
2018-11-25T02:01:30.418Z,7.47
2018-11-25T02:03:59.260Z,7.50
2018-11-25T02:06:28.084Z,7.73
2018-11-25T02:08:56.910Z,7.03
2018-11-25T02:11:26.483Z,7.90
2018-11-25T02:13:55.305Z,8.40
2018-11-25T02:16:24.870Z,7.07
2018-11-25T02:18:53.758Z,7.40
2018-11-25T02:21:22.570Z,7.77
2018-11-25T02:23:52.146Z,7.60
2018-11-25T02:26:20.971Z,7.70
2018-11-25T02:28:49.788Z,7.47
2018-11-25T02:31:18.611Z,7.27
2018-11-25T02:33:47.437Z,7.43
2018-11-25T02:36:16.288Z,7.60
2018-11-25T02:38:45.125Z,7.80
2018-11-25T02:41:13.966Z,7.80
2018-11-25T02:43:42.802Z,7.72
2018-11-25T02:46:12.397Z,7.20
2018-11-25T02:48:41.229Z,7.07
2018-11-25T02:51:10.054Z,7.87
2018-11-25T02:53:38.873Z,7.10
2018-11-25T02:56:07.712Z,7.17
2018-11-25T02:58:36.529Z,7.73
2018-11-25T03:01:05.344Z,6.53
2018-11-25T03:03:34.917Z,7.33
2018-11-25T03:06:03.750Z,7.00
2018-11-25T03:08:32.595Z,7.60
2018-11-25T03:11:01.412Z,8.07
2018-11-25T03:13:30.241Z,8.40
2018-11-25T03:15:59.063Z,8.17
2018-11-25T03:18:27.878Z,8.63
2018-11-25T03:20:57.445Z,7.90
2018-11-25T03:23:26.266Z,7.93
2018-11-25T03:25:55.837Z,7.60
2018-11-25T03:28:24.656Z,7.20
2018-11-25T03:30:53.473Z,7.67
2018-11-25T03:33:22.306Z,7.63
2018-11-25T03:35:51.125Z,7.03
2018-11-25T03:38:19.959Z,8.10
2018-11-25T03:40:48.787Z,7.80
2018-11-25T03:43:18.356Z,8.23
2018-11-25T03:45:47.181Z,9.10
2018-11-25T03:48:16.014Z,8.43
2018-11-25T03:50:44.835Z,9.17
2018-11-25T03:53:13.653Z,8.73
2018-11-25T03:55:42.486Z,9.83
2018-11-25T03:58:11.312Z,9.20
2018-11-25T04:00:40.138Z,8.27
2018-11-25T04:03:08.964Z,8.10
2018-11-25T04:05:37.791Z,7.97
2018-11-25T04:08:07.360Z,7.90
2018-11-25T04:10:36.198Z,8.57
2018-11-25T04:13:05.777Z,7.50
2018-11-25T04:15:34.601Z,7.90
2018-11-25T04:18:03.427Z,8.03
2018-11-25T04:20:32.249Z,7.97
2018-11-25T04:23:01.071Z,7.93
2018-11-25T04:25:29.890Z,8.17
2018-11-25T04:27:58.711Z,8.93
2018-11-25T04:30:27.538Z,9.70
2018-11-25T04:32:57.093Z,9.10
2018-11-25T04:35:25.917Z,9.27
2018-11-25T04:37:55.494Z,8.53
2018-11-25T04:40:24.319Z,9.50
2018-11-25T04:42:53.887Z,9.20
2018-11-25T04:45:22.702Z,8.87
2018-11-25T04:47:51.522Z,9.10
2018-11-25T04:50:20.363Z,9.73
2018-11-25T04:52:49.185Z,8.40
2018-11-25T04:55:18.743Z,8.73
2018-11-25T04:57:47.580Z,8.33
2018-11-25T05:00:17.137Z,9.47
2018-11-25T05:02:45.964Z,9.48
2018-11-25T05:05:14.801Z,8.67
2018-11-25T05:07:43.623Z,9.30
2018-11-25T05:10:12.465Z,9.23
2018-11-25T05:12:41.278Z,8.87
2018-11-25T05:15:10.109Z,8.93
2018-11-25T05:17:38.936Z,9.23
2018-11-25T05:20:07.759Z,9.30
2018-11-25T05:22:36.573Z,8.97
2018-11-25T05:25:05.400Z,9.80
2018-11-25T05:27:34.217Z,9.40
2018-11-25T05:30:03.039Z,8.80
2018-11-25T05:32:31.863Z,9.10
2018-11-25T05:35:00.690Z,10.17
2018-11-25T05:37:29.504Z,8.83
2018-11-25T05:39:59.083Z,9.93
2018-11-25T05:42:27.910Z,8.67
2018-11-25T05:44:57.487Z,9.43
2018-11-25T05:47:26.305Z,8.90
2018-11-25T05:49:55.874Z,8.93
2018-11-25T05:52:24.685Z,9.90
2018-11-25T05:54:53.507Z,10.17
2018-11-25T05:57:22.333Z,10.50
2018-11-25T05:59:51.155Z,10.00
2018-11-25T06:02:20.722Z,10.40
2018-11-25T06:04:49.562Z,10.80
2018-11-25T06:07:19.144Z,10.50
2018-11-25T06:09:48.574Z,10.37
2018-11-25T06:12:17.395Z,9.00
2018-11-25T06:14:46.229Z,10.23
2018-11-25T06:17:15.049Z,9.60
2018-11-25T06:19:43.870Z,9.97
2018-11-25T06:22:12.701Z,10.20
2018-11-25T06:24:42.280Z,9.73
2018-11-25T06:27:11.100Z,9.73
2018-11-25T06:29:40.765Z,10.73
2018-11-25T06:32:09.563Z,11.75
2018-11-25T06:34:38.380Z,11.00
2018-11-25T06:37:07.216Z,10.83
2018-11-25T06:39:36.055Z,12.03
2018-11-25T06:42:04.893Z,11.73
2018-11-25T06:44:33.728Z,11.85
2018-11-25T06:47:02.571Z,10.57
2018-11-25T06:49:31.416Z,10.57
2018-11-25T06:52:00.987Z,10.50
2018-11-25T06:54:29.825Z,11.38
2018-11-25T06:56:59.378Z,9.93
2018-11-25T06:59:28.212Z,10.43
2018-11-25T07:01:57.784Z,10.53
2018-11-25T07:04:26.612Z,10.60
2018-11-25T07:06:55.436Z,10.67
2018-11-25T07:09:24.277Z,12.53
2018-11-25T07:11:53.927Z,12.50
2018-11-25T07:14:22.685Z,14.05
2018-11-25T07:16:51.519Z,12.93
2018-11-25T07:19:20.348Z,13.53
2018-11-25T07:21:49.943Z,12.97
2018-11-25T07:24:18.781Z,13.62
2018-11-25T07:26:47.624Z,14.02
2018-11-25T07:29:16.450Z,11.80
2018-11-25T07:31:45.319Z,12.40
2018-11-25T07:34:14.895Z,13.40
2018-11-25T07:36:43.722Z,13.00
2018-11-25T07:39:12.575Z,12.10
2018-11-25T07:41:41.432Z,12.33
2018-11-25T07:44:10.275Z,13.97
2018-11-25T07:46:39.111Z,14.80
2018-11-25T07:49:07.946Z,13.68
2018-11-25T07:51:36.779Z,12.37
2018-11-25T07:54:05.611Z,12.53
2018-11-25T07:56:34.449Z,12.57
2018-11-25T07:59:03.307Z,14.67
2018-11-25T08:01:32.157Z,13.57
2018-11-25T08:04:01.001Z,14.43
2018-11-25T08:06:29.834Z,13.98
2018-11-25T08:08:58.655Z,11.97
2018-11-25T08:11:27.548Z,13.10
2018-11-25T08:13:56.383Z,12.10
2018-11-25T08:16:25.214Z,12.10
2018-11-25T08:18:54.056Z,11.13
2018-11-25T08:21:22.912Z,14.13
2018-11-25T08:23:51.746Z,14.80
2018-11-25T08:26:20.576Z,13.60
2018-11-25T08:28:49.438Z,13.33
2018-11-25T08:31:18.276Z,13.73
2018-11-25T08:33:47.128Z,12.02
2018-11-25T08:36:15.961Z,14.25
2018-11-25T08:38:44.796Z,14.67
2018-11-25T08:41:13.644Z,13.10
2018-11-25T08:43:42.483Z,13.83
2018-11-25T08:46:11.315Z,14.87
2018-11-25T08:48:40.243Z,16.30
2018-11-25T08:51:09.082Z,15.43
2018-11-25T08:53:38.679Z,15.20
2018-11-25T08:56:08.271Z,15.60
2018-11-25T08:58:37.088Z,14.93
2018-11-25T09:01:05.926Z,18.63
2018-11-25T09:03:35.332Z,18.37
2018-11-25T09:06:04.332Z,19.27
2018-11-25T09:08:33.149Z,19.47
2018-11-25T09:11:02.741Z,20.10
2018-11-25T09:13:31.574Z,22.33
2018-11-25T09:16:00.413Z,19.57
2018-11-25T09:18:29.251Z,15.77
2018-11-25T09:20:58.085Z,18.10
2018-11-25T09:23:26.930Z,17.47
2018-11-25T09:25:55.772Z,17.93
2018-11-25T09:28:24.677Z,16.73
2018-11-25T09:30:53.450Z,16.97
2018-11-25T09:33:22.286Z,16.57
2018-11-25T09:35:51.131Z,17.57
2018-11-25T09:38:19.989Z,15.63
2018-11-25T09:40:48.834Z,13.47
2018-11-25T09:43:17.656Z,16.40
2018-11-25T09:45:46.491Z,14.60
2018-11-25T09:48:16.089Z,15.63
2018-11-25T09:50:44.164Z,16.00
2018-11-25T09:53:13.011Z,15.63
2018-11-25T09:55:41.851Z,14.07
2018-11-25T09:58:10.712Z,15.17
2018-11-25T10:00:39.535Z,15.00
2018-11-25T10:03:09.102Z,15.10
2018-11-25T10:05:37.941Z,17.27
2018-11-25T10:08:06.774Z,15.30
2018-11-25T10:10:35.610Z,15.17
2018-11-25T10:13:04.439Z,16.77
2018-11-25T10:15:33.278Z,16.43
2018-11-25T10:18:02.114Z,15.50
2018-11-25T10:20:30.952Z,16.77
2018-11-25T10:22:59.803Z,16.00
2018-11-25T10:25:28.627Z,17.47
2018-11-25T10:27:57.471Z,14.97
2018-11-25T10:30:26.312Z,17.30
2018-11-25T10:32:55.887Z,17.60
2018-11-25T10:35:24.719Z,16.87
2018-11-25T10:37:54.325Z,16.73
2018-11-25T10:40:23.907Z,20.60
2018-11-25T10:42:52.774Z,18.50
2018-11-25T10:45:21.638Z,18.43
2018-11-25T10:47:50.502Z,18.23
2018-11-25T10:50:19.983Z,21.17
2018-11-25T10:52:48.817Z,21.12
2018-11-25T10:55:17.654Z,19.53
2018-11-25T10:57:46.494Z,20.63
2018-11-25T11:00:15.928Z,20.87
2018-11-25T11:02:44.685Z,20.30
2018-11-25T11:05:13.570Z,31.63
2018-11-25T11:07:42.473Z,33.33
2018-11-25T11:10:11.345Z,26.37
2018-11-25T11:12:40.184Z,34.17
2018-11-25T11:15:09.069Z,33.40
2018-11-25T11:17:37.868Z,26.27
2018-11-25T11:20:06.740Z,32.80
2018-11-25T11:22:35.560Z,28.13
2018-11-25T11:25:04.398Z,29.97
2018-11-25T11:27:33.231Z,34.47
2018-11-25T11:30:02.063Z,33.93
2018-11-25T11:32:30.900Z,31.80
2018-11-25T11:34:59.734Z,28.73
2018-11-25T11:37:28.569Z,29.70
2018-11-25T11:39:57.402Z,35.20
2018-11-25T11:42:28.784Z,27.73
2018-11-25T11:44:55.055Z,25.90
2018-11-25T11:47:23.893Z,23.90
2018-11-25T11:49:52.737Z,25.50
2018-11-25T11:52:22.329Z,25.33
2018-11-25T11:54:51.172Z,21.97
2018-11-25T11:57:20.006Z,23.40
2018-11-25T11:59:48.841Z,22.73
2018-11-25T12:02:17.673Z,18.67
2018-11-25T12:04:46.518Z,20.17
2018-11-25T12:07:15.399Z,19.33
2018-11-25T12:09:45.010Z,19.63
2018-11-25T12:12:14.596Z,19.73
2018-11-25T12:14:44.173Z,21.40
2018-11-25T12:17:13.012Z,18.70
2018-11-25T12:19:42.570Z,17.50
2018-11-25T12:22:11.519Z,20.17
2018-11-25T12:24:41.083Z,19.23
2018-11-25T12:27:10.514Z,17.47
2018-11-25T12:29:39.343Z,17.33
2018-11-25T12:32:08.206Z,17.00
2018-11-25T12:34:37.778Z,17.30
2018-11-25T12:37:06.613Z,17.40
2018-11-25T12:39:35.439Z,17.47
2018-11-25T12:42:04.325Z,17.10
2018-11-25T12:44:33.139Z,17.27
2018-11-25T12:47:01.979Z,19.33
2018-11-25T12:49:30.822Z,19.03
2018-11-25T12:51:59.664Z,20.93
2018-11-25T12:54:28.484Z,20.97
2018-11-25T12:56:57.340Z,21.60
2018-11-25T12:59:26.220Z,26.97
2018-11-25T13:01:55.043Z,27.63
2018-11-25T13:04:27.804Z,27.47
2018-11-25T13:06:53.048Z,24.47
2018-11-25T13:09:21.906Z,28.23
2018-11-25T13:11:52.527Z,29.00
2018-11-25T13:14:19.883Z,28.80
2018-11-25T13:16:48.973Z,30.17
2018-11-25T13:19:17.792Z,28.70
2018-11-25T13:21:46.867Z,30.27
2018-11-25T13:24:15.973Z,31.40
2018-11-25T13:26:45.747Z,26.63
2018-11-25T13:29:14.775Z,25.73
2018-11-25T13:31:43.590Z,29.40
2018-11-25T13:34:12.491Z,24.97
2018-11-25T13:36:41.551Z,27.47
2018-11-25T13:39:10.393Z,23.97
2018-11-25T13:41:40.130Z,23.67
2018-11-25T13:44:08.970Z,25.73
2018-11-25T13:46:38.129Z,22.87
2018-11-25T13:49:06.937Z,23.23
2018-11-25T13:51:35.760Z,22.17
2018-11-25T13:54:04.883Z,24.30
2018-11-25T13:56:33.787Z,24.13
2018-11-25T13:59:02.782Z,23.83
2018-11-25T14:01:31.798Z,23.27
2018-11-25T14:04:00.592Z,23.53
2018-11-25T14:06:30.178Z,24.17
2018-11-25T14:08:58.289Z,26.87
2018-11-25T14:11:27.143Z,22.83
2018-11-25T14:13:56.000Z,22.63
2018-11-25T14:16:24.853Z,27.23
2018-11-25T14:18:53.706Z,23.93
2018-11-25T14:21:22.550Z,24.63
2018-11-25T14:23:51.407Z,29.20
2018-11-25T14:26:20.322Z,27.73
2018-11-25T14:28:49.943Z,27.63
2018-11-25T14:31:18.696Z,27.00
2018-11-25T14:33:48.288Z,28.37
2018-11-25T14:36:17.141Z,27.17
2018-11-25T14:38:45.971Z,27.43
2018-11-25T14:41:14.814Z,28.63
2018-11-25T14:43:43.660Z,26.87
2018-11-25T14:46:13.240Z,28.33
2018-11-25T14:48:42.071Z,27.10
2018-11-25T14:51:10.932Z,33.03
2018-11-25T14:53:39.806Z,35.07
2018-11-25T14:56:08.628Z,34.90
2018-11-25T14:58:37.464Z,29.37
2018-11-25T15:01:06.298Z,28.10
2018-11-25T15:03:35.133Z,25.73
2018-11-25T15:06:03.961Z,26.00
2018-11-25T15:08:32.802Z,27.27
2018-11-25T15:11:01.640Z,26.90
2018-11-25T15:13:30.477Z,28.77
2018-11-25T15:15:59.352Z,26.43
2018-11-25T15:18:28.983Z,26.57
2018-11-25T15:20:57.796Z,27.00
2018-11-25T15:23:26.669Z,26.50
2018-11-25T15:25:55.494Z,26.60
2018-11-25T15:28:24.328Z,27.83
2018-11-25T15:30:53.167Z,26.30
2018-11-25T15:33:21.998Z,24.90
2018-11-25T15:35:50.835Z,26.97
2018-11-25T15:38:19.686Z,27.67
2018-11-25T15:40:48.512Z,25.73
2018-11-25T15:43:17.341Z,26.17
2018-11-25T15:45:46.186Z,26.93
2018-11-25T15:48:15.025Z,25.60
2018-11-25T15:50:43.879Z,25.30
2018-11-25T15:53:12.720Z,26.90
2018-11-25T15:55:41.569Z,24.63
2018-11-25T15:58:10.380Z,24.67
2018-11-25T16:00:39.217Z,24.70
2018-11-25T16:03:08.088Z,27.20
2018-11-25T16:05:36.898Z,27.27
2018-11-25T16:08:05.752Z,23.30
2018-11-25T16:10:34.596Z,23.67
2018-11-25T16:13:03.426Z,25.23
2018-11-25T16:15:32.275Z,23.13
2018-11-25T16:18:01.150Z,22.87
2018-11-25T16:20:29.964Z,23.57
2018-11-25T16:22:59.567Z,23.33
2018-11-25T16:25:28.461Z,22.63
2018-11-25T16:27:58.039Z,21.90
2018-11-25T16:30:26.875Z,25.95
2018-11-25T16:32:55.705Z,22.17
2018-11-25T16:35:24.535Z,21.90
2018-11-25T16:37:53.377Z,21.43
2018-11-25T16:40:22.230Z,22.80
2018-11-25T16:42:51.061Z,21.73
2018-11-25T16:45:19.922Z,21.90
2018-11-25T16:47:48.737Z,21.30
2018-11-25T16:50:25.015Z,21.23
2018-11-25T16:52:46.417Z,20.33
2018-11-25T16:55:15.258Z,21.03
2018-11-25T16:57:44.116Z,22.17
2018-11-25T17:00:12.947Z,20.80
2018-11-25T17:02:41.783Z,20.80
2018-11-25T17:05:10.626Z,20.73
2018-11-25T17:07:39.474Z,20.20
2018-11-25T17:10:08.306Z,20.33
2018-11-25T17:12:37.143Z,22.80
2018-11-25T17:15:05.981Z,22.27
2018-11-25T17:17:34.820Z,22.67
2018-11-25T17:20:03.689Z,22.93
2018-11-25T17:22:32.519Z,26.57
2018-11-25T17:25:01.358Z,24.10
2018-11-25T17:27:30.194Z,24.87
2018-11-25T17:29:59.035Z,26.13
2018-11-25T17:32:27.879Z,28.10
2018-11-25T17:34:57.462Z,24.53
2018-11-25T17:37:26.372Z,25.00
2018-11-25T17:39:55.139Z,26.40
2018-11-25T17:42:23.982Z,25.50
2018-11-25T17:44:52.819Z,26.33
2018-11-25T17:47:21.653Z,26.70
2018-11-25T17:49:50.489Z,27.80
2018-11-25T17:52:19.353Z,26.97
2018-11-25T17:54:48.184Z,28.90
2018-11-25T17:57:17.066Z,24.83
2018-11-25T17:59:45.912Z,24.97
2018-11-25T18:02:14.754Z,26.60
2018-11-25T18:04:43.598Z,21.13
2018-11-25T18:07:12.444Z,20.33
2018-11-25T18:09:42.032Z,21.67
2018-11-25T18:12:10.869Z,23.77
2018-11-25T18:14:39.705Z,47.80
2018-11-25T18:17:08.559Z,29.33
2018-11-25T18:19:37.379Z,23.83
2018-11-25T18:22:06.228Z,22.57
2018-11-25T18:24:35.056Z,20.90
2018-11-25T18:27:03.934Z,24.53
2018-11-25T18:29:32.733Z,24.00
2018-11-25T18:32:01.577Z,21.47
2018-11-25T18:34:30.417Z,21.57
2018-11-25T18:36:59.244Z,20.40
2018-11-25T18:39:28.069Z,20.97
2018-11-25T18:41:56.926Z,21.67
2018-11-25T18:44:25.777Z,21.43
2018-11-25T18:46:54.625Z,20.70
2018-11-25T18:49:23.457Z,20.00
2018-11-25T18:51:52.298Z,19.90
2018-11-25T18:54:21.150Z,21.20
2018-11-25T18:56:50.003Z,20.60
2018-11-25T18:59:18.830Z,28.58
2018-11-25T19:01:48.431Z,22.13
2018-11-25T19:04:18.000Z,27.13
2018-11-25T19:06:46.864Z,28.90
2018-11-25T19:09:15.696Z,24.47
2018-11-25T19:11:44.550Z,24.27
2018-11-25T19:14:13.390Z,23.60
2018-11-25T19:16:42.233Z,20.17
2018-11-25T19:19:11.061Z,21.20
2018-11-25T19:21:40.647Z,19.07
2018-11-25T19:24:09.494Z,19.03
2018-11-25T19:26:38.329Z,20.20
2018-11-25T19:29:07.174Z,19.20
2018-11-25T19:31:36.001Z,19.53
2018-11-25T19:34:04.849Z,20.07
2018-11-25T19:36:33.689Z,20.63
2018-11-25T19:39:03.138Z,20.50
2018-11-25T19:41:31.993Z,19.73
2018-11-25T19:44:00.850Z,21.13
2018-11-25T19:46:29.689Z,19.73
2018-11-25T19:48:59.286Z,19.33
2018-11-25T19:51:28.137Z,19.87
2018-11-25T19:53:56.998Z,21.27
2018-11-25T19:56:25.848Z,19.20
2018-11-25T19:58:55.709Z,21.33
2018-11-25T20:01:24.520Z,21.43
2018-11-25T20:03:53.421Z,19.27
2018-11-25T20:06:22.316Z,19.87
2018-11-25T20:08:51.183Z,19.83
2018-11-25T20:11:20.004Z,20.80
2018-11-25T20:13:49.601Z,20.73
2018-11-25T20:16:18.454Z,21.52
2018-11-25T20:18:47.289Z,22.02
2018-11-25T20:21:16.137Z,19.60
2018-11-25T20:23:44.990Z,22.10
2018-11-25T20:26:13.824Z,24.67
2018-11-25T20:28:42.674Z,23.67
2018-11-25T20:31:12.278Z,20.77
2018-11-25T20:33:51.554Z,21.47
2018-11-25T20:36:14.905Z,20.67
2018-11-25T20:38:43.755Z,20.90
2018-11-25T20:41:13.337Z,20.30
2018-11-25T20:43:42.180Z,21.17
2018-11-25T20:46:11.041Z,24.85
2018-11-25T20:48:40.610Z,23.50
2018-11-25T20:51:09.441Z,25.03
2018-11-25T20:53:41.082Z,22.73
2018-11-25T20:56:09.931Z,23.70
2018-11-25T20:58:38.800Z,26.48
2018-11-25T21:01:07.620Z,25.20
2018-11-25T21:03:36.448Z,27.60
2018-11-25T21:06:05.309Z,29.80
2018-11-25T21:08:34.148Z,28.80
2018-11-25T21:11:03.013Z,23.43
2018-11-25T21:13:31.883Z,21.63
2018-11-25T21:16:00.781Z,21.33
2018-11-25T21:18:29.596Z,22.93
2018-11-25T21:20:58.501Z,20.97
2018-11-25T21:23:27.341Z,21.30
2018-11-25T21:25:56.142Z,22.35
2018-11-25T21:28:25.018Z,20.33
2018-11-25T21:30:53.936Z,19.90
2018-11-25T21:33:23.334Z,22.17
2018-11-25T21:35:52.224Z,20.27
2018-11-25T21:38:21.060Z,20.00
2018-11-25T21:40:49.888Z,18.13
2018-11-25T21:43:19.459Z,19.00
2018-11-25T21:45:48.312Z,19.30
2018-11-25T21:48:17.153Z,18.53
2018-11-25T21:50:46.010Z,18.27
2018-11-25T21:53:14.892Z,20.40
2018-11-25T21:55:43.706Z,21.17
2018-11-25T21:58:12.542Z,20.85
2018-11-25T22:00:41.395Z,16.80
2018-11-25T22:03:10.213Z,17.60
2018-11-25T22:05:39.054Z,18.10
2018-11-25T22:08:07.887Z,18.03
2018-11-25T22:10:36.723Z,18.97
2018-11-25T22:13:05.574Z,18.57
2018-11-25T22:15:35.160Z,19.57
2018-11-25T22:18:04.009Z,21.50
2018-11-25T22:20:32.851Z,20.40
2018-11-25T22:23:01.692Z,19.03
2018-11-25T22:25:30.526Z,19.07
2018-11-25T22:27:59.378Z,19.47
2018-11-25T22:30:28.230Z,21.73
2018-11-25T22:32:57.095Z,21.35
2018-11-25T22:35:25.901Z,20.35
2018-11-25T22:37:54.799Z,19.27
2018-11-25T22:40:23.651Z,19.13
2018-11-25T22:42:53.282Z,18.20
2018-11-25T22:45:22.088Z,18.43
2018-11-25T22:47:50.922Z,18.57
2018-11-25T22:50:19.772Z,18.63
2018-11-25T22:52:48.647Z,19.23
2018-11-25T22:55:18.228Z,18.80
2018-11-25T22:57:47.046Z,21.52
2018-11-25T23:00:16.154Z,19.07
2018-11-25T23:02:45.472Z,20.20
2018-11-25T23:05:28.153Z,20.43
2018-11-25T23:07:56.980Z,20.93
2018-11-25T23:10:25.806Z,19.83
2018-11-25T23:12:54.643Z,19.90
2018-11-25T23:15:23.486Z,19.90
2018-11-25T23:17:53.066Z,20.07
2018-11-25T23:20:21.898Z,20.30
2018-11-25T23:22:50.727Z,20.07
2018-11-25T23:25:19.564Z,21.37
2018-11-25T23:27:49.145Z,20.83
2018-11-25T23:30:18.568Z,22.20
2018-11-25T23:32:47.394Z,24.30
2018-11-25T23:35:16.216Z,24.97
2018-11-25T23:37:45.810Z,23.30
2018-11-25T23:40:14.647Z,22.90
2018-11-25T23:42:43.568Z,21.80
2018-11-25T23:45:12.322Z,23.83
2018-11-25T23:47:41.924Z,23.33
2018-11-25T23:50:11.493Z,25.08
2018-11-25T23:52:40.329Z,25.95
2018-11-25T23:55:09.154Z,23.10
2018-11-25T23:57:38.002Z,22.27
